createdAt,value
2018-05-27T00:02:05.559Z,77.20
2018-05-27T00:07:13.050Z,76.80
2018-05-27T00:09:43.313Z,77.20
2018-05-27T00:12:12.197Z,77.10
2018-05-27T00:14:41.073Z,77.40
2018-05-27T00:17:11.128Z,77.60
2018-05-27T00:19:40.078Z,78.20
2018-05-27T00:22:10.110Z,77.90
2018-05-27T00:24:39.707Z,78.50
2018-05-27T00:27:08.618Z,78.50
2018-05-27T00:29:38.720Z,79.30
2018-05-27T00:32:08.510Z,79.50
2018-05-27T00:34:37.008Z,79.70
2018-05-27T00:37:06.794Z,79.70
2018-05-27T00:39:40.018Z,79.90
2018-05-27T00:42:09.901Z,80.00
2018-05-27T00:44:43.907Z,80.00
2018-05-27T00:47:17.374Z,80.50
2018-05-27T00:49:46.266Z,80.40
2018-05-27T00:52:14.930Z,80.70
2018-05-27T00:54:45.099Z,81.00
2018-05-27T00:57:14.067Z,80.80
2018-05-27T00:59:55.878Z,80.40
2018-05-27T01:02:24.707Z,80.40
2018-05-27T01:04:54.146Z,80.50
2018-05-27T01:07:22.978Z,80.80
2018-05-27T01:09:51.816Z,80.90
2018-05-27T01:12:22.227Z,81.10
2018-05-27T01:14:52.108Z,80.90
2018-05-27T01:17:21.501Z,80.90
2018-05-27T01:19:50.446Z,81.00
2018-05-27T01:22:19.930Z,81.60
2018-05-27T01:24:49.049Z,81.20
2018-05-27T01:27:23.481Z,81.60
2018-05-27T01:29:52.370Z,81.90
2018-05-27T01:32:24.868Z,81.70
2018-05-27T01:34:53.940Z,81.70
2018-05-27T01:37:23.180Z,82.00
2018-05-27T01:40:02.571Z,81.60
2018-05-27T01:42:31.660Z,81.20
2018-05-27T01:45:01.282Z,81.90
2018-05-27T01:47:30.354Z,82.10
2018-05-27T01:50:00.536Z,81.70
2018-05-27T01:52:29.672Z,81.70
2018-05-27T01:54:58.653Z,82.10
2018-05-27T01:57:29.604Z,82.20
2018-05-27T01:59:59.904Z,82.20
2018-05-27T02:02:28.881Z,82.20
2018-05-27T02:04:57.908Z,82.90
2018-05-27T02:07:27.067Z,82.70
2018-05-27T02:10:01.499Z,82.70
2018-05-27T02:12:31.629Z,82.40
2018-05-27T02:15:00.664Z,82.80
2018-05-27T02:17:31.182Z,83.10
2018-05-27T02:20:00.066Z,83.10
2018-05-27T02:22:38.741Z,83.30
2018-05-27T02:25:07.417Z,83.90
2018-05-27T02:27:38.983Z,84.00
2018-05-27T02:30:10.931Z,84.00
2018-05-27T02:32:39.798Z,84.30
2018-05-27T02:35:12.903Z,84.50
2018-05-27T02:37:41.688Z,84.90
2018-05-27T02:40:24.458Z,85.40
2018-05-27T02:42:54.465Z,85.10
2018-05-27T02:45:30.869Z,85.60
2018-05-27T02:48:00.295Z,85.90
2018-05-27T02:50:30.019Z,86.10
2018-05-27T02:52:59.333Z,86.40
2018-05-27T02:55:34.121Z,86.40
2018-05-27T02:58:03.248Z,86.50
2018-05-27T03:00:32.291Z,86.40
2018-05-27T03:03:01.926Z,86.60
2018-05-27T03:05:36.088Z,86.80
2018-05-27T03:08:04.832Z,86.40
2018-05-27T03:10:34.166Z,87.00
2018-05-27T03:13:05.185Z,87.40
2018-05-27T03:15:34.525Z,87.70
2018-05-27T03:18:04.581Z,87.80
2018-05-27T03:20:34.394Z,87.80
2018-05-27T03:23:04.582Z,88.20
2018-05-27T03:25:35.251Z,88.30
2018-05-27T03:28:04.043Z,88.20
2018-05-27T03:30:32.687Z,88.40
2018-05-27T03:33:06.036Z,89.20
2018-05-27T03:35:34.863Z,89.10
2018-05-27T03:41:04.974Z,88.70
2018-05-27T03:43:33.729Z,88.30
2018-05-27T03:46:04.037Z,88.60
2018-05-27T03:48:37.144Z,88.10
2018-05-27T03:51:06.326Z,88.50
2018-05-27T03:53:39.342Z,88.50
2018-05-27T03:56:09.159Z,88.50
2018-05-27T03:58:39.774Z,88.50
2018-05-27T04:01:08.897Z,88.20
2018-05-27T04:03:44.952Z,88.20
2018-05-27T04:06:35.376Z,88.00
2018-05-27T04:09:05.346Z,87.50
2018-05-27T04:11:34.817Z,86.80
2018-05-27T04:14:03.929Z,86.50
2018-05-27T04:16:32.913Z,86.40
2018-05-27T04:19:02.805Z,86.30
2018-05-27T04:21:31.314Z,85.90
2018-05-27T04:24:07.079Z,85.70
2018-05-27T04:26:36.553Z,84.60
2018-05-27T04:29:04.977Z,84.60
2018-05-27T04:31:42.159Z,84.00
2018-05-27T04:34:11.857Z,83.70
2018-05-27T04:36:43.266Z,83.30
2018-05-27T04:39:13.041Z,82.70
2018-05-27T04:41:42.968Z,82.60
2018-05-27T04:44:21.501Z,81.20
2018-05-27T04:46:50.255Z,81.20
2018-05-27T04:49:22.299Z,81.20
2018-05-27T04:51:51.657Z,80.30
2018-05-27T04:54:21.679Z,79.80
2018-05-27T04:56:50.886Z,79.00
2018-05-27T04:59:21.927Z,78.70
2018-05-27T05:01:52.255Z,78.70
2018-05-27T05:04:22.594Z,78.80
2018-05-27T05:06:54.226Z,78.50
2018-05-27T05:09:22.730Z,78.10
2018-05-27T05:11:52.614Z,78.40
2018-05-27T05:14:21.971Z,78.10
2018-05-27T05:16:51.865Z,77.60
2018-05-27T05:19:22.576Z,77.90
2018-05-27T05:24:29.727Z,78.20
2018-05-27T05:26:58.946Z,78.50
2018-05-27T05:29:28.433Z,78.40
2018-05-27T05:31:57.320Z,78.50
2018-05-27T05:34:27.118Z,78.80
2018-05-27T05:36:56.829Z,79.00
2018-05-27T05:39:28.272Z,79.00
2018-05-27T05:41:56.837Z,79.20
2018-05-27T05:44:25.952Z,79.00
2018-05-27T05:46:56.694Z,78.90
2018-05-27T05:49:35.949Z,78.90
2018-05-27T05:52:05.524Z,78.90
2018-05-27T05:54:34.618Z,78.60
2018-05-27T05:57:08.216Z,78.60
2018-05-27T05:59:39.499Z,78.60
2018-05-27T06:02:10.256Z,78.90
2018-05-27T06:04:41.452Z,78.90
2018-05-27T06:07:10.569Z,78.60
2018-05-27T06:09:39.587Z,79.20
2018-05-27T06:12:07.866Z,78.80
2018-05-27T06:14:38.868Z,78.70
2018-05-27T06:17:07.670Z,78.60
2018-05-27T06:19:36.003Z,78.20
2018-05-27T06:22:04.635Z,77.80
2018-05-27T06:27:06.467Z,77.20
2018-05-27T06:29:47.778Z,77.00
2018-05-27T06:32:17.315Z,76.00
2018-05-27T06:34:56.331Z,76.00
2018-05-27T06:37:25.639Z,76.20
2018-05-27T06:39:55.119Z,75.50
2018-05-27T06:42:24.434Z,74.90
2018-05-27T06:44:57.327Z,74.60
2018-05-27T06:47:26.502Z,74.50
2018-05-27T06:50:01.853Z,74.10
2018-05-27T06:52:30.917Z,73.10
2018-05-27T06:55:05.900Z,73.00
2018-05-27T06:57:34.587Z,72.80
2018-05-27T07:00:13.868Z,72.00
2018-05-27T07:02:43.588Z,71.70
2018-05-27T07:05:12.851Z,72.10
2018-05-27T07:07:41.831Z,72.00
2018-05-27T07:10:16.278Z,72.20
2018-05-27T07:12:46.751Z,72.10
2018-05-27T07:15:15.847Z,71.90
2018-05-27T07:17:45.644Z,72.40
2018-05-27T07:20:16.220Z,72.40
2018-05-27T07:22:45.648Z,72.00
2018-05-27T07:25:15.112Z,71.60
2018-05-27T07:27:43.999Z,71.50
2018-05-27T07:30:13.585Z,70.70
2018-05-27T07:32:42.892Z,70.70
2018-05-27T07:35:12.165Z,70.50
2018-05-27T07:37:40.949Z,71.00
2018-05-27T07:40:11.241Z,71.60
2018-05-27T07:42:40.335Z,70.90
2018-05-27T07:45:14.304Z,71.00
2018-05-27T07:47:43.209Z,71.50
2018-05-27T07:50:13.517Z,70.90
2018-05-27T07:52:42.965Z,70.90
2018-05-27T07:55:17.988Z,70.50
2018-05-27T07:57:46.588Z,69.80
2018-05-27T08:00:18.790Z,70.30
2018-05-27T08:02:47.962Z,70.30
2018-05-27T08:05:24.210Z,69.40
2018-05-27T08:07:53.794Z,70.50
2018-05-27T08:10:24.389Z,70.10
2018-05-27T08:12:54.343Z,70.30
2018-05-27T08:15:26.032Z,70.00
2018-05-27T08:17:55.302Z,69.80
2018-05-27T08:20:25.281Z,69.90
2018-05-27T08:22:55.283Z,69.90
2018-05-27T08:25:27.213Z,69.30
2018-05-27T08:27:56.666Z,69.60
2018-05-27T08:30:27.362Z,70.10
2018-05-27T08:32:56.796Z,69.40
2018-05-27T08:35:26.094Z,68.40
2018-05-27T08:37:56.196Z,68.40
2018-05-27T08:40:25.418Z,68.60
2018-05-27T08:42:55.579Z,68.10
2018-05-27T08:45:25.687Z,68.20
2018-05-27T08:47:55.656Z,67.50
2018-05-27T08:50:31.981Z,67.90
2018-05-27T08:55:37.163Z,67.20
2018-05-27T08:58:11.836Z,67.60
2018-05-27T09:00:42.083Z,67.40
2018-05-27T09:03:13.810Z,68.20
2018-05-27T09:05:44.598Z,68.10
2018-05-27T09:08:16.442Z,66.60
2018-05-27T09:10:47.736Z,66.80
2018-05-27T09:13:17.478Z,66.40
2018-05-27T09:15:50.143Z,65.90
2018-05-27T09:18:20.765Z,62.90
2018-05-27T09:20:51.288Z,60.80
2018-05-27T09:23:19.073Z,60.10
2018-05-27T09:25:56.884Z,60.30
2018-05-27T09:28:26.983Z,58.60
2018-05-27T09:31:10.641Z,57.60
2018-05-27T09:33:40.532Z,57.40
2018-05-27T09:36:10.383Z,57.40
2018-05-27T09:38:38.794Z,56.00
2018-05-27T09:41:21.294Z,56.30
2018-05-27T09:43:51.739Z,57.80
2018-05-27T09:46:28.944Z,56.80
2018-05-27T09:48:58.862Z,57.20
2018-05-27T09:51:29.606Z,57.90
2018-05-27T09:54:00.752Z,57.80
2018-05-27T09:56:33.712Z,57.20
2018-05-27T09:59:05.284Z,57.70
2018-05-27T10:01:34.201Z,56.80
2018-05-27T10:04:05.539Z,57.00
2018-05-27T10:06:34.511Z,57.70
2018-05-27T10:09:04.217Z,57.60
2018-05-27T10:11:34.840Z,56.00
2018-05-27T10:14:02.820Z,56.00
2018-05-27T10:16:34.903Z,56.00
2018-05-27T10:19:04.966Z,56.30
2018-05-27T10:21:38.320Z,56.40
2018-05-27T10:24:05.912Z,56.40
2018-05-27T10:26:33.606Z,55.40
2018-05-27T10:29:17.793Z,55.50
2018-05-27T10:31:47.236Z,55.50
2018-05-27T10:34:16.800Z,53.90
2018-05-27T10:36:48.417Z,53.90
2018-05-27T10:39:18.823Z,52.90
2018-05-27T10:41:47.681Z,53.00
2018-05-27T10:44:17.313Z,52.40
2018-05-27T10:46:48.457Z,51.30
2018-05-27T10:49:17.464Z,51.30
2018-05-27T10:51:50.215Z,51.20
2018-05-27T10:54:19.690Z,50.80
2018-05-27T10:56:49.051Z,50.70
2018-05-27T10:59:17.933Z,50.70
2018-05-27T11:01:48.363Z,50.20
2018-05-27T11:04:17.168Z,51.20
2018-05-27T11:06:52.283Z,52.00
2018-05-27T11:09:21.808Z,53.30
2018-05-27T11:11:49.467Z,53.90
2018-05-27T11:14:17.480Z,54.90
2018-05-27T11:16:45.081Z,55.20
2018-05-27T11:19:13.092Z,55.50
2018-05-27T11:21:40.717Z,55.70
2018-05-27T11:24:08.321Z,56.10
2018-05-27T11:26:35.927Z,56.40
2018-05-27T11:29:03.501Z,57.10
2018-05-27T11:31:31.352Z,58.00
2018-05-27T11:33:59.007Z,57.20
2018-05-27T11:36:27.741Z,58.20
2018-05-27T11:38:55.301Z,58.20
2018-05-27T11:41:22.855Z,57.40
2018-05-27T11:43:50.445Z,57.80
2018-05-27T11:46:18.000Z,58.20
2018-05-27T11:48:45.565Z,58.40
2018-05-27T11:51:13.123Z,59.10
2018-05-27T11:53:40.670Z,60.70
2018-05-27T11:56:08.204Z,64.60
2018-05-27T11:58:35.785Z,65.50
2018-05-27T12:01:04.931Z,67.30
2018-05-27T12:03:33.054Z,68.10
2018-05-27T12:06:00.718Z,67.90
2018-05-27T12:08:28.407Z,73.00
2018-05-27T12:13:29.597Z,74.60
2018-05-27T12:15:57.148Z,76.50
2018-05-27T12:18:25.669Z,76.70
2018-05-27T12:20:53.232Z,78.30
2018-05-27T12:23:20.771Z,75.90
2018-05-27T12:25:48.348Z,75.70
2018-05-27T12:28:16.924Z,77.40
2018-05-27T12:30:49.488Z,77.00
2018-05-27T12:33:18.025Z,76.30
2018-05-27T12:35:45.609Z,76.10
2018-05-27T12:38:13.202Z,76.00
2018-05-27T12:40:41.199Z,75.40
2018-05-27T12:43:08.747Z,75.40
2018-05-27T12:45:36.491Z,73.30
2018-05-27T12:48:05.950Z,75.90
2018-05-27T12:50:33.523Z,75.00
2018-05-27T12:53:01.935Z,73.30
2018-05-27T12:55:29.534Z,74.50
2018-05-27T12:57:57.122Z,73.10
2018-05-27T13:00:25.132Z,71.00
2018-05-27T13:02:52.869Z,71.30
2018-05-27T13:05:20.484Z,72.30
2018-05-27T13:07:48.068Z,71.10
2018-05-27T13:10:15.748Z,72.40
2018-05-27T13:12:43.347Z,73.20
2018-05-27T13:15:10.984Z,72.60
2018-05-27T13:17:38.548Z,72.60
2018-05-27T13:20:07.279Z,72.40
2018-05-27T13:22:34.856Z,72.30
2018-05-27T13:25:02.429Z,73.30
2018-05-27T13:27:30.018Z,72.90
2018-05-27T13:29:57.639Z,72.20
2018-05-27T13:32:25.278Z,74.20
2018-05-27T13:34:52.886Z,73.90
2018-05-27T13:37:21.649Z,75.30
2018-05-27T13:39:49.311Z,76.30
2018-05-27T13:42:16.890Z,77.10
2018-05-27T13:44:44.451Z,73.20
2018-05-27T13:47:12.571Z,72.40
2018-05-27T13:49:43.220Z,72.70
2018-05-27T13:52:11.208Z,73.70
2018-05-27T13:54:38.806Z,73.70
2018-05-27T13:57:06.381Z,72.60
2018-05-27T13:59:37.502Z,72.00
2018-05-27T14:02:05.062Z,72.00
2018-05-27T14:04:33.516Z,71.30
2018-05-27T14:07:02.034Z,69.80
2018-05-27T14:09:29.641Z,69.90
2018-05-27T14:11:57.629Z,68.70
2018-05-27T14:16:57.991Z,67.90
2018-05-27T14:19:25.666Z,67.60
2018-05-27T14:21:53.230Z,66.50
2018-05-27T14:24:21.589Z,65.20
2018-05-27T14:26:49.169Z,66.30
2018-05-27T14:29:16.730Z,65.30
2018-05-27T14:31:44.295Z,66.20
2018-05-27T14:34:12.658Z,66.20
2018-05-27T14:36:40.295Z,66.50
2018-05-27T14:39:08.130Z,66.00
2018-05-27T14:41:35.975Z,66.20
2018-05-27T14:46:43.837Z,67.60
2018-05-27T14:49:12.712Z,68.40
2018-05-27T14:51:41.624Z,68.40
2018-05-27T14:54:09.651Z,68.20
2018-05-27T14:56:37.320Z,68.20
2018-05-27T14:59:04.985Z,68.90
2018-05-27T15:01:33.257Z,69.40
2018-05-27T15:04:01.331Z,69.60
2018-05-27T15:06:28.861Z,69.60
2018-05-27T15:08:56.457Z,70.10
2018-05-27T15:11:24.852Z,71.00
2018-05-27T15:13:52.446Z,71.50
2018-05-27T15:16:20.614Z,71.20
2018-05-27T15:18:48.793Z,72.00
2018-05-27T15:21:17.249Z,72.00
2018-05-27T15:23:44.837Z,71.90
2018-05-27T15:26:15.462Z,71.90
2018-05-27T15:28:44.556Z,73.40
2018-05-27T15:31:14.114Z,74.50
2018-05-27T15:33:41.783Z,74.50
2018-05-27T15:36:11.834Z,75.90
2018-05-27T15:38:43.077Z,77.60
2018-05-27T15:41:16.526Z,76.10
2018-05-27T15:43:44.238Z,76.10
2018-05-27T15:46:13.208Z,77.80
2018-05-27T15:48:43.928Z,79.30
2018-05-27T15:51:16.701Z,76.50
2018-05-27T15:53:44.427Z,76.50
2018-05-27T15:56:12.002Z,76.60
2018-05-27T15:58:39.664Z,77.50
2018-05-27T16:01:07.616Z,78.30
2018-05-27T16:03:35.308Z,78.30
2018-05-27T16:06:03.430Z,78.80
2018-05-27T16:08:32.416Z,78.80
2018-05-27T16:11:01.098Z,79.50
2018-05-27T16:13:28.833Z,78.70
2018-05-27T16:15:57.071Z,79.20
2018-05-27T16:18:29.103Z,79.20
2018-05-27T16:20:58.497Z,79.60
2018-05-27T16:23:27.125Z,79.50
2018-05-27T16:25:54.717Z,80.60
2018-05-27T16:28:30.753Z,81.20
2018-05-27T16:30:58.328Z,81.20
2018-05-27T16:33:25.891Z,81.30
2018-05-27T16:35:53.869Z,81.60
2018-05-27T16:38:21.421Z,81.50
2018-05-27T16:40:50.372Z,81.60
2018-05-27T16:43:19.037Z,81.60
2018-05-27T16:45:46.683Z,81.30
2018-05-27T16:48:14.231Z,81.50
2018-05-27T16:50:41.843Z,81.00
2018-05-27T16:53:11.494Z,82.40
2018-05-27T16:55:39.470Z,81.70
2018-05-27T16:58:07.420Z,80.70
2018-05-27T17:00:41.445Z,80.80
2018-05-27T17:03:09.397Z,80.50
2018-05-27T17:05:40.787Z,80.40
2018-05-27T17:08:08.365Z,80.30
2018-05-27T17:10:35.908Z,80.30
2018-05-27T17:13:03.906Z,80.10
2018-05-27T17:15:35.697Z,80.10
2018-05-27T17:18:03.258Z,79.70
2018-05-27T17:20:33.775Z,80.50
2018-05-27T17:23:01.318Z,80.40
2018-05-27T17:25:28.850Z,82.00
2018-05-27T17:27:58.624Z,81.60
2018-05-27T17:30:43.105Z,81.00
2018-05-27T17:33:11.038Z,80.70
2018-05-27T17:35:38.617Z,80.80
2018-05-27T17:38:12.042Z,79.70
2018-05-27T17:40:39.597Z,77.10
2018-05-27T17:43:22.620Z,73.20
2018-05-27T17:45:50.217Z,73.20
2018-05-27T17:48:22.357Z,70.80
2018-05-27T17:50:49.945Z,69.40
2018-05-27T17:53:23.742Z,68.80
2018-05-27T17:55:54.812Z,68.20
2018-05-27T17:58:23.786Z,69.00
2018-05-27T18:00:51.413Z,69.00
2018-05-27T18:46:00.300Z,71.00
2018-05-27T18:48:30.604Z,76.40
2018-05-27T18:50:58.166Z,76.70
2018-05-27T18:53:26.770Z,77.00
2018-05-27T18:55:58.819Z,76.80
2018-05-27T18:58:26.785Z,77.00
2018-05-27T19:00:55.375Z,78.10
2018-05-27T19:03:23.045Z,78.70
2018-05-27T19:05:53.987Z,79.00
2018-05-27T19:08:21.555Z,78.30
2018-05-27T19:10:49.110Z,78.30
2018-05-27T19:13:17.333Z,78.80
2018-05-27T19:15:45.042Z,78.80
2018-05-27T19:18:12.601Z,79.50
2018-05-27T19:20:40.172Z,79.90
2018-05-27T19:23:07.805Z,80.40
2018-05-27T19:25:35.745Z,80.60
2018-05-27T19:28:10.425Z,80.60
2018-05-27T19:30:38.721Z,80.60
2018-05-27T19:33:07.482Z,80.30
2018-05-27T19:35:35.873Z,80.50
2018-05-27T19:38:03.639Z,80.70
2018-05-27T20:22:53.561Z,80.80
2018-05-27T20:25:22.215Z,85.90
2018-05-27T20:27:49.825Z,85.40
2018-05-27T20:30:17.473Z,85.20
2018-05-27T20:32:50.705Z,84.80
2018-05-27T20:35:18.943Z,84.90
2018-05-27T20:38:01.913Z,84.90
2018-05-27T20:40:30.692Z,85.10
2018-05-27T20:42:59.452Z,85.30
2018-05-27T20:45:27.071Z,85.70
2018-05-27T20:47:54.736Z,85.90
2018-05-27T20:50:24.416Z,85.50
2018-05-27T20:52:52.447Z,86.30
2018-05-27T20:55:20.117Z,86.30
2018-05-27T20:57:47.887Z,86.30
2018-05-27T21:00:17.046Z,87.00
2018-05-27T21:02:44.671Z,87.00
2018-05-27T21:05:12.792Z,87.80
2018-05-27T21:07:40.493Z,87.80
2018-05-27T21:10:08.199Z,88.20
2018-05-27T21:12:35.835Z,88.70
2018-05-27T21:15:03.558Z,89.20
2018-05-27T21:17:32.184Z,90.00
2018-05-27T21:20:00.243Z,90.80
2018-05-27T21:22:27.940Z,90.80
2018-05-27T21:24:55.967Z,91.60
2018-05-27T21:27:23.651Z,91.60
2018-05-27T21:29:52.161Z,91.50
2018-05-27T21:32:19.775Z,91.80
2018-05-27T21:34:49.410Z,92.60
2018-05-27T21:37:17.484Z,92.90
2018-05-27T21:39:45.466Z,93.20
2018-05-27T21:42:13.120Z,93.20
2018-05-27T21:44:41.106Z,94.00
2018-05-27T21:47:08.749Z,94.00
2018-05-27T21:49:36.411Z,94.00
2018-05-27T21:52:04.492Z,94.80
2018-05-27T21:54:33.365Z,94.70
2018-05-27T21:57:00.960Z,94.60
2018-05-27T21:59:29.767Z,94.80
2018-05-27T22:01:57.431Z,95.30
2018-05-27T22:04:25.094Z,95.60
2018-05-27T22:06:52.688Z,95.70
2018-05-27T22:09:20.331Z,95.60
2018-05-27T22:11:47.942Z,95.80
2018-05-27T22:14:15.971Z,96.00
2018-05-27T22:16:43.607Z,96.00
2018-05-27T22:19:11.251Z,96.20
2018-05-27T22:21:39.317Z,96.70
2018-05-27T22:24:07.326Z,96.90
2018-05-27T22:26:36.227Z,96.90
2018-05-27T22:29:04.098Z,96.60
2018-05-27T22:31:31.750Z,96.60
2018-05-27T22:33:59.392Z,97.10
2018-05-27T22:36:27.073Z,96.70
2018-05-27T22:38:54.694Z,96.70
2018-05-27T22:41:25.727Z,96.90
2018-05-27T22:43:53.328Z,96.90
2018-05-27T22:46:31.194Z,96.90
2018-05-27T22:48:58.856Z,97.10
2018-05-27T22:51:30.126Z,97.10
2018-05-27T22:53:57.744Z,97.20
2018-05-27T22:56:38.934Z,97.30
2018-05-27T22:59:06.534Z,97.30
2018-05-27T23:01:34.171Z,97.10
2018-05-27T23:04:02.145Z,96.30
2018-05-27T23:06:43.777Z,96.30
2018-05-27T23:09:11.359Z,96.20
2018-05-27T23:11:40.845Z,96.60
2018-05-27T23:14:09.381Z,96.80
2018-05-27T23:16:37.033Z,96.90
2018-05-27T23:19:06.651Z,97.10
2018-05-27T23:21:34.282Z,97.70
2018-05-27T23:24:01.901Z,97.40
2018-05-27T23:26:29.512Z,97.50
2018-05-27T23:28:57.153Z,97.80
2018-05-27T23:31:24.813Z,98.00
2018-05-27T23:33:52.477Z,98.00
2018-05-27T23:36:20.073Z,97.80
2018-05-27T23:38:58.059Z,97.70
2018-05-27T23:41:25.663Z,97.70
2018-05-27T23:43:53.684Z,98.10
2018-05-27T23:46:23.249Z,98.10
2018-05-27T23:48:51.291Z,97.50
2018-05-27T23:51:19.946Z,97.50
2018-05-27T23:53:47.595Z,97.70
2018-05-27T23:56:15.187Z,97.70
2018-05-27T23:58:46.447Z,97.70
